Time;durP1;ratioP1;P1;durP2;ratioP2;P2;SDS_P1;SDS_P2;PMS_P1;PMS_P2;Temp;Humidity;BMP_temperature;BMP_pressure;BME280_temperature;BME280_humidity;BME280_pressure;Samples;Min_cycle;Max_cycle;Signal;HPM_P1;HPM_P2
2023/12/31 00:00:53;;;;;;;13.20;6.00;;;;;;;;;;103617;1291;545392;-73
2023/12/31 00:04:49;;;;;;;14.10;6.40;;;;;;;;;;103779;1292;545586;-70
2023/12/31 00:08:27;;;;;;;26.80;16.20;;;;;;;;;;103810;1289;544872;-71
2023/12/31 00:12:08;;;;;;;17.00;8.30;;;;;;;;;;103650;1292;544748;-70
2023/12/31 00:15:46;;;;;;;18.90;8.30;;;;;;;;;;103701;1292;545678;-71
2023/12/31 00:19:23;;;;;;;12.80;6.50;;;;;;;;;;103453;1291;545657;-71
2023/12/31 00:23:01;;;;;;;11.90;6.50;;;;;;;;;;103875;1289;545298;-71
2023/12/31 00:26:38;;;;;;;12.80;6.40;;;;;;;;;;103756;1289;544989;-71
2023/12/31 00:30:15;;;;;;;13.10;5.90;;;;;;;;;;103713;1291;545025;-71
2023/12/31 00:33:56;;;;;;;12.40;5.80;;;;;;;;;;103540;1295;544734;-70
2023/12/31 00:37:30;;;;;;;11.70;5.40;;;;;;;;;;103552;1291;545022;-70
2023/12/31 00:41:08;;;;;;;13.90;6.40;;;;;;;;;;103580;1293;544711;-72
2023/12/31 00:44:46;;;;;;;14.70;6.90;;;;;;;;;;103792;1292;545806;-72
2023/12/31 00:48:23;;;;;;;13.40;6.50;;;;;;;;;;103733;1292;545443;-71
2023/12/31 00:52:01;;;;;;;16.60;7.30;;;;;;;;;;103722;1292;544954;-71
2023/12/31 00:55:38;;;;;;;16.30;7.30;;;;;;;;;;103847;1291;545584;-71
2023/12/31 00:59:19;;;;;;;13.90;7.10;;;;;;;;;;103798;1289;544796;-71
2023/12/31 01:02:53;;;;;;;13.20;6.90;;;;;;;;;;103781;1289;545174;-71
2023/12/31 01:06:30;;;;;;;14.50;7.20;;;;;;;;;;103871;1289;544575;-71
2023/12/31 01:10:08;;;;;;;12.40;7.10;;;;;;;;;;104192;1285;545348;-72
2023/12/31 01:13:41;;;;;;;11.70;6.20;;;;;;;;;;103881;1295;544877;-72
2023/12/31 01:17:23;;;;;;;13.90;6.00;;;;;;;;;;104286;1289;545908;-72
2023/12/31 01:21:00;;;;;;;13.10;6.30;;;;;;;;;;104610;1291;544972;-70
2023/12/31 01:24:37;;;;;;;11.40;6.40;;;;;;;;;;105072;1292;544878;-70
2023/12/31 01:28:14;;;;;;;12.20;7.10;;;;;;;;;;104923;1289;544827;-70
2023/12/31 01:31:52;;;;;;;14.50;6.50;;;;;;;;;;104971;1288;545789;-69
2023/12/31 01:35:30;;;;;;;15.30;7.30;;;;;;;;;;104870;1290;545063;-70
2023/12/31 01:39:07;;;;;;;13.10;7.00;;;;;;;;;;103772;1292;545580;-71
2023/12/31 01:42:41;;;;;;;13.30;7.00;;;;;;;;;;103732;1291;545363;-72
2023/12/31 01:46:30;;;;;;;18.40;9.00;;;;;;;;;;103776;1289;544894;-73
2023/12/31 01:50:02;;;;;;;20.90;11.70;;;;;;;;;;104027;1289;544756;-72
2023/12/31 01:53:38;;;;;;;18.70;11.40;;;;;;;;;;103569;1291;546322;-71
2023/12/31 01:57:15;;;;;;;17.10;9.50;;;;;;;;;;103503;1289;544993;-71
2023/12/31 02:00:52;;;;;;;16.00;8.50;;;;;;;;;;103644;1289;544995;-71
2023/12/31 02:04:37;;;;;;;19.90;12.20;;;;;;;;;;103655;1289;544693;-71
2023/12/31 02:08:09;;;;;;;25.50;11.80;;;;;;;;;;103939;1289;545541;-72
2023/12/31 02:11:44;;;;;;;24.50;11.70;;;;;;;;;;103835;1292;545125;-71
2023/12/31 02:15:34;;;;;;;19.50;11.10;;;;;;;;;;103684;1291;544794;-71
2023/12/31 02:19:14;;;;;;;18.40;9.00;;;;;;;;;;103680;1292;545087;-71
2023/12/31 02:22:52;;;;;;;17.20;9.70;;;;;;;;;;103594;1292;545221;-71
2023/12/31 02:26:31;;;;;;;18.20;10.30;;;;;;;;;;103840;1289;545011;-72
2023/12/31 02:30:07;;;;;;;18.40;10.00;;;;;;;;;;103608;1294;544872;-72
2023/12/31 02:33:44;;;;;;;19.60;10.60;;;;;;;;;;103832;1291;545421;-71
2023/12/31 02:37:22;;;;;;;20.50;10.00;;;;;;;;;;103626;1291;544910;-71
2023/12/31 02:40:59;;;;;;;19.60;10.00;;;;;;;;;;103799;1293;544856;-71
2023/12/31 02:44:38;;;;;;;18.40;10.30;;;;;;;;;;103450;1291;545015;-71
2023/12/31 02:48:14;;;;;;;20.90;12.10;;;;;;;;;;103791;1299;544772;-72
2023/12/31 02:51:51;;;;;;;25.90;14.70;;;;;;;;;;103710;1296;545370;-72
2023/12/31 02:55:29;;;;;;;25.60;14.30;;;;;;;;;;103674;1290;544848;-70
2023/12/31 02:59:06;;;;;;;21.90;11.80;;;;;;;;;;103377;1305;545098;-70
2023/12/31 03:02:44;;;;;;;17.90;10.70;;;;;;;;;;103554;1292;545962;-70
2023/12/31 03:06:21;;;;;;;16.50;10.10;;;;;;;;;;103578;1291;545010;-72
2023/12/31 03:09:59;;;;;;;15.50;9.50;;;;;;;;;;103571;1295;545028;-71
2023/12/31 03:13:32;;;;;;;17.60;11.00;;;;;;;;;;103634;1291;545536;-71
2023/12/31 03:17:14;;;;;;;20.70;11.80;;;;;;;;;;103820;1290;545394;-71
2023/12/31 03:20:51;;;;;;;18.70;11.30;;;;;;;;;;103718;1290;544842;-71
2023/12/31 03:24:29;;;;;;;19.20;11.60;;;;;;;;;;104672;1282;544755;-71
2023/12/31 03:28:06;;;;;;;16.30;10.20;;;;;;;;;;103781;1295;544846;-71
2023/12/31 03:31:43;;;;;;;18.80;10.80;;;;;;;;;;103788;1292;544766;-71
2023/12/31 03:35:21;;;;;;;16.80;10.20;;;;;;;;;;103817;1289;544703;-72
2023/12/31 03:38:58;;;;;;;24.90;15.30;;;;;;;;;;103602;1295;545600;-72
2023/12/31 03:42:36;;;;;;;38.20;22.10;;;;;;;;;;103595;1289;545123;-71
2023/12/31 03:46:13;;;;;;;31.20;18.50;;;;;;;;;;103498;1291;544999;-72
2023/12/31 03:49:50;;;;;;;30.00;17.40;;;;;;;;;;103713;1292;544823;-72
2023/12/31 03:53:25;;;;;;;24.70;13.30;;;;;;;;;;103794;1289;544908;-72
2023/12/31 03:57:06;;;;;;;22.90;13.50;;;;;;;;;;103774;1291;545152;-72
2023/12/31 04:00:44;;;;;;;31.20;17.80;;;;;;;;;;103614;1289;545039;-71
2023/12/31 04:04:21;;;;;;;32.70;19.80;;;;;;;;;;103770;1289;545029;-70
2023/12/31 04:07:59;;;;;;;27.30;17.30;;;;;;;;;;103734;1295;544870;-71
2023/12/31 04:11:35;;;;;;;27.20;15.50;;;;;;;;;;103874;1290;545460;-72
2023/12/31 04:15:16;;;;;;;22.00;14.30;;;;;;;;;;103726;1292;545037;-71
2023/12/31 04:18:53;;;;;;;21.70;13.90;;;;;;;;;;103575;1291;545137;-72
2023/12/31 04:22:27;;;;;;;25.20;15.50;;;;;;;;;;103875;1290;544949;-72
2023/12/31 04:26:08;;;;;;;23.70;14.80;;;;;;;;;;103749;1288;545359;-71
2023/12/31 04:30:06;;;;;;;20.60;13.00;;;;;;;;;;103536;1295;547866;-71
2023/12/31 04:33:23;;;;;;;21.30;12.60;;;;;;;;;;103721;1295;545027;-71
2023/12/31 04:37:01;;;;;;;23.20;12.40;;;;;;;;;;103639;1292;544768;-71
2023/12/31 04:40:38;;;;;;;20.60;11.50;;;;;;;;;;103549;1290;545512;-72
2023/12/31 04:44:15;;;;;;;17.40;10.80;;;;;;;;;;103556;1305;545180;-71
2023/12/31 04:47:53;;;;;;;19.10;11.20;;;;;;;;;;103689;1288;544944;-71
2023/12/31 04:51:30;;;;;;;20.10;11.80;;;;;;;;;;103848;1290;545015;-72
2023/12/31 04:55:08;;;;;;;17.60;11.10;;;;;;;;;;104015;1301;546061;-70
2023/12/31 04:58:46;;;;;;;18.70;10.70;;;;;;;;;;103748;1291;544938;-72
2023/12/31 05:02:28;;;;;;;17.30;10.30;;;;;;;;;;103719;1290;545431;-71
2023/12/31 05:05:56;;;;;;;14.80;9.00;;;;;;;;;;103874;1289;545306;-71
2023/12/31 05:09:37;;;;;;;16.40;9.60;;;;;;;;;;103896;1288;546573;-72
2023/12/31 05:13:15;;;;;;;16.30;9.90;;;;;;;;;;103558;1291;545071;-71
2023/12/31 05:16:52;;;;;;;16.40;10.40;;;;;;;;;;103643;1289;544993;-72
2023/12/31 05:20:30;;;;;;;19.00;12.20;;;;;;;;;;103442;1295;547110;-72
2023/12/31 05:24:07;;;;;;;20.60;12.70;;;;;;;;;;103993;1295;544969;-72
2023/12/31 05:27:45;;;;;;;25.30;15.80;;;;;;;;;;103594;1292;544767;-71
2023/12/31 05:31:18;;;;;;;30.20;19.00;;;;;;;;;;103663;1288;545478;-72
2023/12/31 05:35:19;;;;;;;20.00;11.20;;;;;;;;;;103784;1292;545473;-70
2023/12/31 05:38:37;;;;;;;17.60;9.70;;;;;;;;;;103552;1292;544960;-70
2023/12/31 05:42:15;;;;;;;18.40;9.20;;;;;;;;;;103599;1292;544644;-71
2023/12/31 05:45:59;;;;;;;16.70;8.80;;;;;;;;;;103602;1291;545029;-71
2023/12/31 05:49:35;;;;;;;15.30;8.30;;;;;;;;;;103592;1289;544763;-71
2023/12/31 05:53:07;;;;;;;18.50;9.70;;;;;;;;;;103749;1291;546137;-72
2023/12/31 05:56:45;;;;;;;16.30;8.40;;;;;;;;;;104579;1283;544980;-71
2023/12/31 06:00:23;;;;;;;13.90;7.90;;;;;;;;;;104010;1290;547096;-71
2023/12/31 06:03:59;;;;;;;14.30;7.40;;;;;;;;;;103728;1289;544862;-71
2023/12/31 06:07:37;;;;;;;14.00;7.30;;;;;;;;;;103622;1292;544981;-71
2023/12/31 06:11:20;;;;;;;13.50;7.20;;;;;;;;;;103595;1290;544892;-72
2023/12/31 06:14:52;;;;;;;13.60;7.10;;;;;;;;;;103849;1289;544809;-72
2023/12/31 06:18:29;;;;;;;12.20;7.10;;;;;;;;;;103815;1291;545177;-72
2023/12/31 06:22:06;;;;;;;14.00;7.30;;;;;;;;;;103767;1292;546807;-73
2023/12/31 06:25:40;;;;;;;14.00;7.30;;;;;;;;;;103832;1292;544922;-71
2023/12/31 06:29:22;;;;;;;14.80;7.80;;;;;;;;;;103802;1289;545472;-71
2023/12/31 06:32:59;;;;;;;13.00;7.60;;;;;;;;;;103708;1291;545066;-72
2023/12/31 06:36:32;;;;;;;18.50;10.80;;;;;;;;;;103969;1294;545510;-72
2023/12/31 06:40:14;;;;;;;21.50;13.90;;;;;;;;;;103837;1291;545088;-71
2023/12/31 06:43:51;;;;;;;27.50;17.40;;;;;;;;;;103736;1291;544705;-72
2023/12/31 06:47:29;;;;;;;24.20;15.50;;;;;;;;;;103637;1292;545367;-71
2023/12/31 06:51:06;;;;;;;19.80;11.30;;;;;;;;;;103716;1289;545147;-72
2023/12/31 06:54:44;;;;;;;18.00;9.00;;;;;;;;;;103587;1297;544985;-72
2023/12/31 06:58:17;;;;;;;23.20;12.30;;;;;;;;;;103727;1289;544835;-72
2023/12/31 07:01:59;;;;;;;28.90;16.70;;;;;;;;;;103590;1292;545032;-72
2023/12/31 07:05:36;;;;;;;24.80;14.70;;;;;;;;;;103513;1295;545534;-71
2023/12/31 07:09:14;;;;;;;16.70;10.00;;;;;;;;;;103802;1296;545820;-71
2023/12/31 07:12:52;;;;;;;15.80;8.80;;;;;;;;;;103881;1289;545454;-71
2023/12/31 07:16:25;;;;;;;14.00;7.80;;;;;;;;;;103625;1291;544955;-71
2023/12/31 07:20:06;;;;;;;18.60;9.40;;;;;;;;;;104039;1289;545029;-72
2023/12/31 07:23:44;;;;;;;23.50;12.30;;;;;;;;;;103670;1291;545893;-72
2023/12/31 07:27:21;;;;;;;29.70;14.50;;;;;;;;;;103866;1289;545997;-71
2023/12/31 07:30:59;;;;;;;85.30;33.60;;;;;;;;;;103684;1295;545758;-71
2023/12/31 07:34:36;;;;;;;115.30;43.90;;;;;;;;;;103602;1295;545790;-71
2023/12/31 07:38:13;;;;;;;131.20;53.00;;;;;;;;;;104280;1285;545005;-72
2023/12/31 07:41:51;;;;;;;101.50;47.00;;;;;;;;;;103992;1289;544814;-71
2023/12/31 07:45:28;;;;;;;54.50;26.20;;;;;;;;;;103711;1295;544787;-71
2023/12/31 07:49:06;;;;;;;52.90;24.60;;;;;;;;;;103751;1292;545270;-71
2023/12/31 07:52:50;;;;;;;36.70;19.80;;;;;;;;;;103494;1291;545935;-71
2023/12/31 07:56:20;;;;;;;28.30;15.30;;;;;;;;;;103852;1296;545243;-72
2023/12/31 07:59:58;;;;;;;28.50;16.80;;;;;;;;;;103863;1289;544994;-71
2023/12/31 08:03:35;;;;;;;34.70;17.60;;;;;;;;;;103883;1289;545269;-72
2023/12/31 08:07:13;;;;;;;36.60;17.60;;;;;;;;;;103732;1292;545899;-71
2023/12/31 08:10:50;;;;;;;48.40;24.60;;;;;;;;;;103790;1289;545352;-72
2023/12/31 08:14:28;;;;;;;43.50;22.80;;;;;;;;;;103704;1292;545072;-72
2023/12/31 08:18:05;;;;;;;28.50;14.50;;;;;;;;;;103804;1292;545044;-72
2023/12/31 08:21:43;;;;;;;27.80;15.50;;;;;;;;;;103724;1292;545922;-71
2023/12/31 08:25:20;;;;;;;32.20;16.70;;;;;;;;;;103907;1292;544906;-72
2023/12/31 08:28:54;;;;;;;28.50;15.30;;;;;;;;;;103904;1290;545324;-72
2023/12/31 08:32:54;;;;;;;27.70;15.50;;;;;;;;;;103750;1302;549365;-72
2023/12/31 08:36:13;;;;;;;30.60;16.50;;;;;;;;;;103697;1295;544705;-72
2023/12/31 08:39:50;;;;;;;28.90;17.10;;;;;;;;;;103860;1293;544912;-71
2023/12/31 08:43:27;;;;;;;31.70;18.00;;;;;;;;;;103669;1291;544992;-71
2023/12/31 08:47:05;;;;;;;32.00;17.70;;;;;;;;;;104063;1292;545083;-70
2023/12/31 08:50:38;;;;;;;34.70;19.40;;;;;;;;;;104766;1284;545775;-72
2023/12/31 08:54:20;;;;;;;31.30;18.50;;;;;;;;;;103662;1291;545717;-72
2023/12/31 08:57:58;;;;;;;32.00;17.60;;;;;;;;;;103770;1290;545843;-72
2023/12/31 09:01:35;;;;;;;28.90;15.60;;;;;;;;;;103977;1289;545528;-72
2023/12/31 09:05:12;;;;;;;25.80;12.80;;;;;;;;;;103705;1291;545044;-71
2023/12/31 09:08:50;;;;;;;18.90;9.80;;;;;;;;;;103997;1290;545528;-72
2023/12/31 09:12:27;;;;;;;19.00;9.70;;;;;;;;;;103773;1292;545094;-71
2023/12/31 09:16:10;;;;;;;17.00;8.70;;;;;;;;;;103615;1298;545506;-71
2023/12/31 09:19:42;;;;;;;17.60;8.40;;;;;;;;;;103766;1290;544936;-73
2023/12/31 09:23:20;;;;;;;22.00;9.80;;;;;;;;;;103957;1289;545044;-72
2023/12/31 09:26:57;;;;;;;18.10;8.00;;;;;;;;;;103654;1292;545024;-72
2023/12/31 09:30:34;;;;;;;15.00;7.40;;;;;;;;;;103788;1293;545052;-72
2023/12/31 09:34:12;;;;;;;12.80;6.60;;;;;;;;;;103965;1288;544934;-72
2023/12/31 09:37:49;;;;;;;13.80;6.80;;;;;;;;;;103839;1289;544854;-72
2023/12/31 09:41:27;;;;;;;16.70;8.40;;;;;;;;;;103674;1292;545018;-72
2023/12/31 09:45:05;;;;;;;11.00;6.00;;;;;;;;;;103713;1291;544990;-71
2023/12/31 09:48:41;;;;;;;12.50;5.60;;;;;;;;;;103921;1290;545447;-70
2023/12/31 09:52:20;;;;;;;11.70;5.30;;;;;;;;;;103987;1289;544885;-72
2023/12/31 09:55:56;;;;;;;12.30;5.50;;;;;;;;;;103931;1292;545076;-73
2023/12/31 09:59:38;;;;;;;13.80;6.70;;;;;;;;;;103889;1292;544723;-70
2023/12/31 10:03:14;;;;;;;15.40;8.40;;;;;;;;;;104186;1285;544764;-70
2023/12/31 10:06:52;;;;;;;15.50;7.20;;;;;;;;;;103976;1292;544821;-72
2023/12/31 10:10:29;;;;;;;15.90;7.30;;;;;;;;;;103689;1294;544770;-69
2023/12/31 10:14:07;;;;;;;14.50;5.80;;;;;;;;;;103773;1292;544910;-72
2023/12/31 10:17:46;;;;;;;15.40;7.00;;;;;;;;;;103794;1292;544926;-72
2023/12/31 10:21:21;;;;;;;15.80;7.50;;;;;;;;;;103740;1291;544908;-70
2023/12/31 10:25:13;;;;;;;14.10;6.40;;;;;;;;;;103682;1293;545513;-73
2023/12/31 10:28:38;;;;;;;12.70;5.80;;;;;;;;;;103754;1292;545587;-72
2023/12/31 10:32:10;;;;;;;13.90;6.70;;;;;;;;;;104264;1286;545448;-71
2023/12/31 10:35:49;;;;;;;12.70;6.10;;;;;;;;;;103873;1295;545453;-73
2023/12/31 10:39:29;;;;;;;12.10;5.40;;;;;;;;;;104041;1289;545418;-70
2023/12/31 10:43:07;;;;;;;12.30;5.40;;;;;;;;;;103975;1289;545811;-72
2023/12/31 10:46:44;;;;;;;10.50;5.30;;;;;;;;;;103797;1301;545450;-71
2023/12/31 10:50:25;;;;;;;12.80;6.20;;;;;;;;;;103785;1292;546043;-71
2023/12/31 10:54:04;;;;;;;14.10;6.10;;;;;;;;;;103789;1291;546086;-72
2023/12/31 10:57:33;;;;;;;12.40;5.90;;;;;;;;;;103868;1292;545778;-71
2023/12/31 11:01:16;;;;;;;13.00;6.10;;;;;;;;;;103988;1289;545026;-71
2023/12/31 11:04:51;;;;;;;12.40;6.20;;;;;;;;;;103869;1289;545043;-73
2023/12/31 11:08:29;;;;;;;12.10;5.90;;;;;;;;;;103626;1295;545039;-71
2023/12/31 11:12:07;;;;;;;13.60;6.40;;;;;;;;;;104030;1287;545028;-71
2023/12/31 11:15:51;;;;;;;12.30;5.80;;;;;;;;;;103481;1292;544948;-71
2023/12/31 11:19:24;;;;;;;12.40;5.40;;;;;;;;;;103802;1290;545072;-73
2023/12/31 11:23:15;;;;;;;12.00;5.50;;;;;;;;;;103821;1289;544887;-72
2023/12/31 11:26:38;;;;;;;11.40;5.40;;;;;;;;;;103797;1295;545905;-72
2023/12/31 11:30:46;;;;;;;10.90;5.10;;;;;;;;;;103791;1292;545375;-73
2023/12/31 11:33:50;;;;;;;12.20;5.60;;;;;;;;;;103999;1289;544872;-71
2023/12/31 11:37:28;;;;;;;12.60;5.40;;;;;;;;;;103859;1294;545038;-71
2023/12/31 11:41:06;;;;;;;13.60;5.20;;;;;;;;;;103755;1295;545261;-71
2023/12/31 11:44:44;;;;;;;13.00;6.00;;;;;;;;;;103802;1292;546494;-72
2023/12/31 11:48:25;;;;;;;10.80;5.30;;;;;;;;;;103869;1289;544943;-73
2023/12/31 11:51:58;;;;;;;10.90;5.10;;;;;;;;;;103924;1290;545542;-73
2023/12/31 11:55:37;;;;;;;10.50;4.80;;;;;;;;;;103784;1289;544800;-72
2023/12/31 11:59:14;;;;;;;10.70;4.50;;;;;;;;;;103729;1291;545345;-73
2023/12/31 12:02:48;;;;;;;11.60;5.30;;;;;;;;;;104009;1290;545367;-70
2023/12/31 12:06:29;;;;;;;10.60;5.10;;;;;;;;;;103802;1292;545268;-71
2023/12/31 12:10:07;;;;;;;13.40;6.00;;;;;;;;;;103752;1292;545267;-72
2023/12/31 12:13:44;;;;;;;16.70;8.50;;;;;;;;;;103771;1292;545908;-73
2023/12/31 12:17:40;;;;;;;22.20;11.40;;;;;;;;;;103523;1295;549309;-72
2023/12/31 12:20:59;;;;;;;20.80;10.90;;;;;;;;;;103813;1289;544728;-72
2023/12/31 12:24:55;;;;;;;15.00;7.80;;;;;;;;;;103551;1297;545235;-72
2023/12/31 12:28:16;;;;;;;14.20;8.00;;;;;;;;;;103618;1292;545740;-72
2023/12/31 12:32:07;;;;;;;12.20;6.70;;;;;;;;;;103793;1292;547978;-71
2023/12/31 12:35:28;;;;;;;11.80;6.70;;;;;;;;;;103862;1294;544846;-70
2023/12/31 12:39:12;;;;;;;21.10;11.10;;;;;;;;;;103887;1290;545283;-71
2023/12/31 12:42:47;;;;;;;18.70;9.50;;;;;;;;;;103597;1291;545177;-71
2023/12/31 12:46:17;;;;;;;11.30;5.90;;;;;;;;;;103972;1293;544827;-73
2023/12/31 12:49:58;;;;;;;10.90;5.40;;;;;;;;;;103775;1291;545001;-72
2023/12/31 12:53:36;;;;;;;10.40;5.80;;;;;;;;;;103775;1291;546496;-71
2023/12/31 12:57:14;;;;;;;13.00;6.70;;;;;;;;;;103863;1303;545186;-72
2023/12/31 13:00:51;;;;;;;19.00;9.80;;;;;;;;;;103764;1295;544761;-73
2023/12/31 13:04:28;;;;;;;15.60;8.80;;;;;;;;;;103800;1289;545499;-71
2023/12/31 13:08:06;;;;;;;17.70;10.60;;;;;;;;;;103882;1291;545683;-71
2023/12/31 13:11:44;;;;;;;33.40;21.40;;;;;;;;;;103960;1289;544882;-70
2023/12/31 13:15:21;;;;;;;30.20;16.70;;;;;;;;;;103570;1293;546040;-72
2023/12/31 13:18:54;;;;;;;20.20;12.00;;;;;;;;;;103955;1299;544916;-71
2023/12/31 13:22:35;;;;;;;14.90;8.70;;;;;;;;;;103742;1291;545304;-72
2023/12/31 13:26:13;;;;;;;14.20;8.30;;;;;;;;;;104421;1283;544939;-72
2023/12/31 13:29:46;;;;;;;13.30;8.10;;;;;;;;;;103873;1289;545344;-73
2023/12/31 13:33:30;;;;;;;20.30;12.30;;;;;;;;;;103961;1295;545181;-72
2023/12/31 13:37:05;;;;;;;15.70;10.20;;;;;;;;;;103819;1294;545044;-72
2023/12/31 13:40:43;;;;;;;15.60;10.10;;;;;;;;;;104044;1289;545021;-71
2023/12/31 13:44:20;;;;;;;16.40;10.00;;;;;;;;;;104535;1285;544892;-72
2023/12/31 13:48:00;;;;;;;16.00;9.70;;;;;;;;;;103886;1294;544960;-71
2023/12/31 13:51:36;;;;;;;15.20;9.50;;;;;;;;;;104310;1289;545157;-72
2023/12/31 13:55:13;;;;;;;17.20;10.80;;;;;;;;;;103870;1289;545667;-72
2023/12/31 13:58:50;;;;;;;18.40;11.40;;;;;;;;;;103770;1295;546721;-71
2023/12/31 14:02:27;;;;;;;15.80;9.90;;;;;;;;;;103844;1289;544959;-71
2023/12/31 14:06:05;;;;;;;19.40;10.90;;;;;;;;;;103739;1290;545629;-71
2023/12/31 14:09:43;;;;;;;19.20;11.80;;;;;;;;;;104260;1289;545896;-70
2023/12/31 14:13:21;;;;;;;20.70;12.50;;;;;;;;;;104637;1290;545018;-71
2023/12/31 14:17:03;;;;;;;22.70;13.50;;;;;;;;;;104600;1291;544972;-71
2023/12/31 14:20:35;;;;;;;21.20;14.50;;;;;;;;;;104726;1290;544760;-70
2023/12/31 14:24:12;;;;;;;21.90;15.30;;;;;;;;;;104729;1289;544983;-70
2023/12/31 14:27:50;;;;;;;23.60;15.90;;;;;;;;;;104789;1289;544837;-71
2023/12/31 14:31:27;;;;;;;22.40;14.10;;;;;;;;;;104847;1289;544949;-71
2023/12/31 14:35:10;;;;;;;21.70;13.80;;;;;;;;;;104715;1290;544631;-71
2023/12/31 14:38:42;;;;;;;27.50;17.70;;;;;;;;;;105078;1292;545521;-70
2023/12/31 14:42:20;;;;;;;30.90;19.70;;;;;;;;;;104845;1289;544776;-71
2023/12/31 14:45:57;;;;;;;31.00;20.30;;;;;;;;;;104809;1292;544928;-70
2023/12/31 14:49:34;;;;;;;29.50;19.40;;;;;;;;;;104886;1289;545037;-70
2023/12/31 14:53:12;;;;;;;29.70;19.30;;;;;;;;;;104656;1291;545325;-69
2023/12/31 14:56:45;;;;;;;27.60;17.60;;;;;;;;;;104614;1289;545898;-71
2023/12/31 15:00:27;;;;;;;29.20;17.10;;;;;;;;;;104939;1289;545167;-72
2023/12/31 15:04:05;;;;;;;30.40;19.40;;;;;;;;;;105009;1289;544749;-72
2023/12/31 15:07:42;;;;;;;36.20;23.90;;;;;;;;;;104934;1293;544813;-72
2023/12/31 15:11:24;;;;;;;34.20;22.70;;;;;;;;;;104825;1291;544871;-72
2023/12/31 15:14:57;;;;;;;24.00;15.80;;;;;;;;;;104776;1289;545304;-73
2023/12/31 15:18:34;;;;;;;19.10;11.60;;;;;;;;;;103762;1302;545042;-73
2023/12/31 15:22:12;;;;;;;16.30;11.00;;;;;;;;;;103919;1289;544982;-71
2023/12/31 15:25:45;;;;;;;16.50;10.80;;;;;;;;;;104397;1286;545102;-72
2023/12/31 15:29:26;;;;;;;17.20;12.10;;;;;;;;;;103891;1289;545545;-72
2023/12/31 15:33:04;;;;;;;15.30;10.30;;;;;;;;;;103914;1289;544846;-72
2023/12/31 15:36:38;;;;;;;16.10;10.50;;;;;;;;;;104316;1285;545514;-72
2023/12/31 15:40:15;;;;;;;16.70;11.20;;;;;;;;;;103849;1293;545038;-73
2023/12/31 15:43:57;;;;;;;16.90;11.00;;;;;;;;;;104198;1287;544895;-72
2023/12/31 15:47:34;;;;;;;20.50;12.60;;;;;;;;;;103643;1295;544816;-72
2023/12/31 15:51:11;;;;;;;16.90;11.30;;;;;;;;;;103794;1292;545665;-73
2023/12/31 15:55:22;;;;;;;17.90;11.60;;;;;;;;;;104504;1280;545347;-73
2023/12/31 15:58:26;;;;;;;16.50;11.70;;;;;;;;;;103636;1292;544896;-73
2023/12/31 16:02:04;;;;;;;15.80;11.00;;;;;;;;;;103871;1289;544939;-73
2023/12/31 16:05:41;;;;;;;16.30;10.70;;;;;;;;;;103747;1291;546064;-73
2023/12/31 16:09:18;;;;;;;15.00;9.80;;;;;;;;;;103934;1289;546497;-72
2023/12/31 16:12:56;;;;;;;17.00;11.40;;;;;;;;;;103641;1292;546265;-72
2023/12/31 16:16:33;;;;;;;19.90;13.60;;;;;;;;;;103554;1291;545433;-72
2023/12/31 16:20:11;;;;;;;17.50;11.70;;;;;;;;;;103779;1290;545882;-72
2023/12/31 16:23:48;;;;;;;17.70;12.00;;;;;;;;;;103824;1295;544877;-71
2023/12/31 16:27:25;;;;;;;19.50;13.10;;;;;;;;;;103627;1292;545129;-73
2023/12/31 16:31:04;;;;;;;18.30;12.80;;;;;;;;;;103837;1289;545029;-73
2023/12/31 16:34:41;;;;;;;18.50;12.20;;;;;;;;;;103647;1292;545062;-72
2023/12/31 16:38:18;;;;;;;17.90;11.40;;;;;;;;;;103849;1295;544705;-72
2023/12/31 16:41:56;;;;;;;15.70;10.80;;;;;;;;;;103797;1289;545026;-72
2023/12/31 16:45:38;;;;;;;17.30;12.00;;;;;;;;;;103522;1295;544840;-72
2023/12/31 16:49:10;;;;;;;19.40;12.50;;;;;;;;;;103748;1292;544990;-72
2023/12/31 16:52:49;;;;;;;18.40;12.20;;;;;;;;;;103876;1289;545759;-73
2023/12/31 16:56:22;;;;;;;21.40;14.00;;;;;;;;;;103897;1290;545949;-72
2023/12/31 17:00:05;;;;;;;22.50;14.70;;;;;;;;;;103840;1290;545836;-72
2023/12/31 17:03:41;;;;;;;19.90;12.80;;;;;;;;;;103742;1295;545072;-72
2023/12/31 17:07:18;;;;;;;19.40;12.30;;;;;;;;;;103551;1293;545072;-72
2023/12/31 17:10:56;;;;;;;23.20;14.60;;;;;;;;;;103731;1291;544796;-73
2023/12/31 17:14:33;;;;;;;25.40;16.40;;;;;;;;;;103875;1289;545267;-72
2023/12/31 17:18:10;;;;;;;20.70;14.90;;;;;;;;;;103802;1294;545017;-70
2023/12/31 17:21:47;;;;;;;25.10;18.70;;;;;;;;;;103788;1300;545468;-72
2023/12/31 17:25:25;;;;;;;18.10;12.20;;;;;;;;;;103699;1289;544849;-72
2023/12/31 17:29:03;;;;;;;16.50;11.10;;;;;;;;;;103709;1295;544807;-72
2023/12/31 17:33:00;;;;;;;16.50;10.70;;;;;;;;;;103575;1292;549297;-72
2023/12/31 17:36:18;;;;;;;19.40;12.10;;;;;;;;;;103818;1289;547494;-72
2023/12/31 17:39:56;;;;;;;20.80;12.30;;;;;;;;;;103811;1290;545786;-72
2023/12/31 17:43:33;;;;;;;21.70;12.90;;;;;;;;;;103807;1291;544710;-72
2023/12/31 17:47:10;;;;;;;20.30;12.20;;;;;;;;;;103780;1291;544963;-72
2023/12/31 17:50:44;;;;;;;22.50;13.50;;;;;;;;;;103782;1291;545660;-71
2023/12/31 17:54:28;;;;;;;23.20;14.50;;;;;;;;;;103541;1292;545118;-73
2023/12/31 17:58:03;;;;;;;21.80;14.10;;;;;;;;;;103820;1289;544976;-72
2023/12/31 18:01:40;;;;;;;21.40;13.90;;;;;;;;;;103762;1291;546412;-71
2023/12/31 18:05:18;;;;;;;20.50;14.30;;;;;;;;;;103741;1289;544785;-72
2023/12/31 18:08:54;;;;;;;21.80;13.90;;;;;;;;;;103999;1292;546058;-71
2023/12/31 18:12:38;;;;;;;20.70;14.30;;;;;;;;;;103585;1293;545580;-72
2023/12/31 18:16:13;;;;;;;21.90;14.60;;;;;;;;;;103889;1288;544762;-71
2023/12/31 18:19:49;;;;;;;22.20;14.20;;;;;;;;;;104582;1288;545404;-72
2023/12/31 18:23:25;;;;;;;18.20;11.30;;;;;;;;;;104005;1289;545026;-72
2023/12/31 18:27:04;;;;;;;15.50;10.90;;;;;;;;;;104214;1286;545218;-72
2023/12/31 18:30:40;;;;;;;14.10;10.20;;;;;;;;;;103984;1292;545313;-72
2023/12/31 18:34:13;;;;;;;14.80;10.30;;;;;;;;;;104077;1289;545065;-72
2023/12/31 18:37:55;;;;;;;16.10;10.50;;;;;;;;;;103789;1292;545512;-72
2023/12/31 18:41:32;;;;;;;16.30;10.60;;;;;;;;;;104896;1280;545675;-70
2023/12/31 18:45:11;;;;;;;17.90;12.10;;;;;;;;;;103780;1292;545677;-72
2023/12/31 18:48:47;;;;;;;17.80;11.20;;;;;;;;;;103776;1291;545231;-71
2023/12/31 18:52:31;;;;;;;15.60;11.50;;;;;;;;;;103870;1289;544828;-72
2023/12/31 18:56:08;;;;;;;16.90;10.90;;;;;;;;;;103825;1291;546466;-72
2023/12/31 18:59:41;;;;;;;17.20;11.10;;;;;;;;;;103764;1297;545034;-71
2023/12/31 19:03:13;;;;;;;15.90;10.60;;;;;;;;;;103872;1289;545158;-69
2023/12/31 19:07:00;;;;;;;15.90;10.90;;;;;;;;;;103660;1291;545887;-72
2023/12/31 19:10:29;;;;;;;15.70;10.60;;;;;;;;;;103962;1292;545241;-73
2023/12/31 19:14:09;;;;;;;16.30;10.50;;;;;;;;;;103843;1292;545274;-72
2023/12/31 19:17:48;;;;;;;15.30;10.50;;;;;;;;;;103577;1292;545060;-72
2023/12/31 19:21:25;;;;;;;14.10;10.00;;;;;;;;;;103920;1289;545031;-73
2023/12/31 19:25:03;;;;;;;14.60;9.50;;;;;;;;;;103736;1293;545437;-72
2023/12/31 19:28:45;;;;;;;15.40;10.40;;;;;;;;;;103531;1292;545167;-72
2023/12/31 19:32:17;;;;;;;21.80;13.80;;;;;;;;;;103607;1288;545280;-71
2023/12/31 19:35:53;;;;;;;18.50;11.90;;;;;;;;;;103969;1290;545034;-72
2023/12/31 19:39:31;;;;;;;18.10;11.90;;;;;;;;;;103802;1292;545208;-69
2023/12/31 19:43:09;;;;;;;16.20;10.70;;;;;;;;;;103908;1292;545295;-70
2023/12/31 19:46:47;;;;;;;15.30;9.50;;;;;;;;;;104031;1289;545085;-72
2023/12/31 19:50:24;;;;;;;16.10;10.00;;;;;;;;;;103674;1289;544907;-72
2023/12/31 19:54:05;;;;;;;19.20;12.10;;;;;;;;;;103918;1291;545022;-69
2023/12/31 19:57:39;;;;;;;20.00;12.10;;;;;;;;;;103656;1291;545138;-71
2023/12/31 20:01:23;;;;;;;20.30;12.50;;;;;;;;;;103347;1295;544952;-71
2023/12/31 20:04:54;;;;;;;22.00;14.00;;;;;;;;;;103956;1290;545454;-71
2023/12/31 20:08:31;;;;;;;17.10;11.10;;;;;;;;;;103826;1292;544896;-71
2023/12/31 20:12:09;;;;;;;20.50;12.60;;;;;;;;;;103536;1292;544772;-72
2023/12/31 20:15:47;;;;;;;18.30;11.10;;;;;;;;;;103547;1292;544824;-71
2023/12/31 20:19:20;;;;;;;22.40;13.40;;;;;;;;;;103959;1291;545104;-73
2023/12/31 20:23:01;;;;;;;17.00;11.00;;;;;;;;;;103780;1291;544775;-71
2023/12/31 20:26:42;;;;;;;17.70;12.40;;;;;;;;;;104605;1286;545436;-73
2023/12/31 20:30:16;;;;;;;14.90;9.70;;;;;;;;;;103966;1292;545147;-73
2023/12/31 20:33:59;;;;;;;16.70;11.90;;;;;;;;;;104287;1283;544937;-72